Valle de Oro, Texas
Current Conditions -  °F | °C
As of 5:53 PM on Sunday 23 Nov 2014 (Local Time) from KAMA Reporting Station
Scattered Clouds Scattered Clouds  
Wind Chill: 31°   Ceiling: Unl
Heat Index: 38°   Visibility: 10mi
Dew Point: 33°   Wind: 10mph
Humidity: 83%   Direction: 260°W
Pressure: 29.81"   Gusts: NA
Location:  35.5297°N, 102.256°W
Report Text: KAMA 232353Z 26009KT 10SM SCT100 03/01 A2981 RMK AO2 SLP083 60008 T00330006 10100 20017 53027
Loading
Personal Weather Stations






























Interactive Weather Map New forecast layout! Learn more

10-Day Weather Forecast

Advertisements
Track Severe Weather on mobile